Utica, New York
Current Conditions -  °F | °C
As of 2:33 PM on Friday 28 Nov 2014 (Local Time) from KRME Reporting Station
Light Snow Light Snow  
Wind Chill: 13°   Ceiling: 2400
Heat Index: 25°   Visibility: 3mi
Dew Point: 21°   Wind: 15mph
Humidity: 85%   Direction: 270°W
Pressure: 30.19"   Gusts: NA
Location:  43.1°N, 75.24°W
Report Text: KRME 281933Z 27013KT 3SM -SN BR FEW014 BKN024 OVC033 M04/M06 A3019 RMK AO2 UPE1857SNB1857 P0000 T10391061
Loading
Personal Weather Stations






























Interactive Weather Map New forecast layout! Learn more

10-Day Weather Forecast

Advertisements
Track Severe Weather on mobile